Time;durP1;ratioP1;P1;durP2;ratioP2;P2;SDS_P1;SDS_P2;PMS_P1;PMS_P2;Temp;Humidity;BMP_temperature;BMP_pressure;BME280_temperature;BME280_humidity;BME280_pressure;Samples;Min_cycle;Max_cycle;Signal;HPM_P1;HPM_P2
2021/03/13 00:01:05;;;;;;;120.20;51.15;;;;;;;-1.48;81.37;97489.17;1780839;79;21272;-72
2021/03/13 00:03:32;;;;;;;117.70;55.85;;;;;;;-1.53;81.46;97487.70;1779950;80;21130;-72
2021/03/13 00:05:58;;;;;;;125.30;58.20;;;;;;;-1.61;81.51;97487.95;1780843;79;21027;-72
2021/03/13 00:08:24;;;;;;;116.37;58.38;;;;;;;-1.65;81.30;97487.26;1780791;80;21118;-72
2021/03/13 00:10:50;;;;;;;114.57;53.33;;;;;;;-1.73;81.75;97483.83;1780895;79;21020;-72
2021/03/13 00:13:16;;;;;;;119.72;53.90;;;;;;;-1.83;82.09;97486.14;1780822;80;21416;-72
2021/03/13 00:15:44;;;;;;;107.87;55.50;;;;;;;-1.86;82.09;97485.77;1780771;79;21189;-72
2021/03/13 00:18:10;;;;;;;117.13;50.58;;;;;;;-1.85;81.44;97484.22;1780795;80;21023;-72
2021/03/13 00:20:37;;;;;;;104.90;50.67;;;;;;;-1.79;80.73;97490.02;1756743;80;21047;-72
2021/03/13 00:23:04;;;;;;;101.02;46.68;;;;;;;-1.82;79.60;97489.61;1780804;80;21516;-72
2021/03/13 00:25:31;;;;;;;94.22;40.92;;;;;;;-1.84;79.57;97482.38;1780890;79;21203;-72
2021/03/13 00:27:57;;;;;;;80.00;38.67;;;;;;;-1.82;79.36;97473.67;1780726;80;21036;-72
2021/03/13 00:30:28;;;;;;;91.05;43.13;;;;;;;-1.79;79.37;97478.06;1780915;79;21491;-72
2021/03/13 00:33:01;;;;;;;113.50;47.55;;;;;;;-1.78;80.19;97477.55;1780791;80;21100;-72
2021/03/13 00:35:28;;;;;;;169.30;68.72;;;;;;;-1.78;82.16;97469.58;1780853;79;21011;-72
2021/03/13 00:37:55;;;;;;;192.10;78.90;;;;;;;-1.77;81.66;97472.53;1780810;80;21107;-72
2021/03/13 00:40:24;;;;;;;205.72;82.25;;;;;;;-1.82;81.18;97465.70;1762248;81;21127;-72
2021/03/13 00:42:50;;;;;;;126.07;55.50;;;;;;;-1.82;80.95;97464.38;1780963;80;26542;-72
2021/03/13 00:45:18;;;;;;;122.98;57.62;;;;;;;-1.94;81.98;97460.79;1732026;81;21048;-72
2021/03/13 00:47:45;;;;;;;201.67;78.90;;;;;;;-1.95;81.73;97460.49;1780924;80;21048;-72
2021/03/13 00:50:13;;;;;;;268.35;107.12;;;;;;;-1.93;81.11;97458.43;1736530;81;22110;-72
2021/03/13 00:52:39;;;;;;;173.80;75.32;;;;;;;-1.95;81.03;97461.82;1780814;80;21035;-72
2021/03/13 00:55:06;;;;;;;116.50;54.42;;;;;;;-1.94;81.05;97459.46;1731986;81;21104;-72
2021/03/13 00:57:33;;;;;;;131.82;57.90;;;;;;;-1.97;82.06;97461.20;1780845;80;21111;-72
2021/03/13 00:59:59;;;;;;;174.47;68.65;;;;;;;-2.00;82.19;97455.80;1762231;81;21394;-72
2021/03/13 01:02:26;;;;;;;200.05;85.00;;;;;;;-1.97;80.78;97456.70;1780874;80;21206;-72
2021/03/13 01:04:52;;;;;;;143.40;65.72;;;;;;;-2.02;80.54;97444.08;1785273;79;21122;-72
2021/03/13 01:07:18;;;;;;;122.75;54.00;;;;;;;-1.99;82.36;97448.95;1785301;80;21141;-72
2021/03/13 01:09:44;;;;;;;133.07;61.75;;;;;;;-1.94;81.19;97444.34;1785208;79;21114;-72
2021/03/13 01:12:11;;;;;;;136.88;67.03;;;;;;;-1.94;81.19;97447.51;1785314;80;21146;-72
2021/03/13 01:14:37;;;;;;;121.15;56.23;;;;;;;-1.99;81.71;97447.63;1785255;79;21202;-72
2021/03/13 01:17:03;;;;;;;125.33;58.68;;;;;;;-2.00;81.39;97453.15;1785169;80;21114;-72
2021/03/13 01:19:29;;;;;;;78.20;36.03;;;;;;;-1.99;81.60;97442.31;1785286;79;21440;-72
2021/03/13 01:21:55;;;;;;;88.15;40.12;;;;;;;-2.05;80.18;97439.69;1785186;80;21131;-72
2021/03/13 01:24:21;;;;;;;83.20;39.80;;;;;;;-2.10;81.95;97440.34;1785258;79;21106;-72
2021/03/13 01:26:48;;;;;;;71.12;32.88;;;;;;;-2.10;81.36;97432.89;1785192;80;21191;-72
2021/03/13 01:29:14;;;;;;;77.25;38.13;;;;;;;-2.04;80.45;97434.19;1785097;79;21090;-72
2021/03/13 01:31:41;;;;;;;70.42;33.05;;;;;;;-2.09;80.71;97427.37;1785215;80;21095;-72
2021/03/13 01:34:07;;;;;;;71.72;35.75;;;;;;;-2.13;80.22;97428.02;1785155;79;21060;-72
2021/03/13 01:36:33;;;;;;;80.45;39.53;;;;;;;-2.15;82.07;97427.39;1785229;80;21102;-72
2021/03/13 01:38:59;;;;;;;73.35;36.80;;;;;;;-2.06;80.84;97430.91;1785162;79;22125;-72
2021/03/13 01:41:25;;;;;;;88.22;39.25;;;;;;;-1.99;80.79;97429.03;1785208;80;21094;-72
2021/03/13 01:43:51;;;;;;;87.15;40.75;;;;;;;-1.97;80.39;97426.67;1785157;79;21138;-72
2021/03/13 01:46:17;;;;;;;84.85;40.78;;;;;;;-2.02;79.65;97422.02;1785264;80;21141;-72
2021/03/13 01:48:50;;;;;;;82.88;42.45;;;;;;;-2.01;79.93;97429.77;1785149;79;21079;-72
2021/03/13 01:51:17;;;;;;;89.58;43.00;;;;;;;-1.92;80.79;97427.67;1785326;80;21192;-72
2021/03/13 01:53:49;;;;;;;84.80;40.60;;;;;;;-2.02;81.53;97416.71;1785144;79;21090;-72
2021/03/13 01:56:16;;;;;;;91.63;37.65;;;;;;;-2.10;81.20;97418.30;1785241;80;21459;-72
2021/03/13 01:58:42;;;;;;;78.83;38.17;;;;;;;-2.18;80.28;97419.36;1785185;79;21130;-72
2021/03/13 02:01:09;;;;;;;81.05;41.20;;;;;;;-2.28;79.96;97417.17;1785223;80;21095;-72
2021/03/13 02:03:40;;;;;;;74.30;38.20;;;;;;;-2.30;79.81;97409.13;1785017;79;21265;-72
2021/03/13 02:06:07;;;;;;;89.55;40.98;;;;;;;-2.35;79.56;97401.78;1785269;80;21491;-72
2021/03/13 02:08:58;;;;;;;92.22;46.25;;;;;;;-2.42;79.41;97404.98;1785224;80;21107;-72
2021/03/13 02:11:36;;;;;;;94.75;42.80;;;;;;;-2.44;81.77;97399.08;1763178;80;21487;-72
2021/03/13 02:14:26;;;;;;;85.38;41.23;;;;;;;-2.42;81.66;97398.86;1769596;79;21194;-72
2021/03/13 02:17:12;;;;;;;86.28;36.35;;;;;;;-2.43;81.37;97390.61;1784896;80;22050;-71
2021/03/13 02:20:13;;;;;;;72.53;35.33;;;;;;;-2.47;80.41;97392.88;1761074;80;21038;-71
2021/03/13 02:22:40;;;;;;;57.15;27.27;;;;;;;-2.54;81.90;97395.27;1785144;80;21056;-72
2021/03/13 02:25:11;;;;;;;80.55;37.83;;;;;;;-2.53;79.90;97391.58;1756539;80;21059;-72
2021/03/13 02:27:43;;;;;;;77.58;37.58;;;;;;;-2.53;80.20;97400.87;1785183;80;21067;-72
2021/03/13 02:30:14;;;;;;;56.65;29.65;;;;;;;-2.51;81.92;97387.68;1761898;79;21205;-72
2021/03/13 02:33:04;;;;;;;66.53;32.08;;;;;;;-2.43;80.72;97395.91;1785161;80;21087;-71
2021/03/13 02:35:37;;;;;;;77.22;34.55;;;;;;;-2.47;81.30;97387.58;1785180;79;21031;-71
2021/03/13 02:38:07;;;;;;;62.60;29.98;;;;;;;-2.48;81.90;97384.59;1785185;80;21070;-71
2021/03/13 02:40:35;;;;;;;65.75;32.48;;;;;;;-2.42;81.75;97386.41;1785187;79;21059;-72
2021/03/13 02:43:04;;;;;;;67.62;31.50;;;;;;;-2.44;82.18;97378.37;1785095;80;21184;-72
2021/03/13 02:45:33;;;;;;;63.60;28.65;;;;;;;-2.42;81.41;97380.29;1784017;79;21031;-71
2021/03/13 02:48:02;;;;;;;62.98;29.82;;;;;;;-2.47;81.88;97375.63;1785238;80;21098;-72
2021/03/13 02:50:28;;;;;;;68.40;30.40;;;;;;;-2.47;82.05;97374.31;1785275;79;21031;-72
2021/03/13 02:52:54;;;;;;;58.85;29.20;;;;;;;-2.47;81.72;97374.31;1785199;80;21539;-72
2021/03/13 02:55:21;;;;;;;57.20;28.75;;;;;;;-2.50;82.04;97370.73;1756577;80;21191;-72
2021/03/13 02:57:50;;;;;;;61.55;27.98;;;;;;;-2.42;81.01;97368.34;1785166;80;21110;-72
2021/03/13 03:00:18;;;;;;;67.62;32.00;;;;;;;-2.41;82.04;97371.30;1785224;79;21404;-72
2021/03/13 03:02:45;;;;;;;59.65;29.30;;;;;;;-2.44;82.22;97363.77;1785213;80;21543;-72
2021/03/13 03:05:12;;;;;;;57.43;28.40;;;;;;;-2.37;81.37;97362.71;1781132;79;21138;-72
2021/03/13 03:07:38;;;;;;;49.48;25.30;;;;;;;-2.32;81.30;97358.08;1756941;80;22055;-72
2021/03/13 03:10:07;;;;;;;51.40;25.48;;;;;;;-2.31;80.81;97362.35;1780657;79;21091;-72
2021/03/13 03:12:34;;;;;;;49.33;23.07;;;;;;;-2.31;80.76;97361.87;1780833;80;21094;-72
2021/03/13 03:15:00;;;;;;;47.73;24.60;;;;;;;-2.28;80.52;97367.25;1780691;79;21043;-72
2021/03/13 03:17:26;;;;;;;54.42;28.83;;;;;;;-2.37;81.64;97361.91;1780713;80;21154;-72
2021/03/13 03:19:57;;;;;;;46.25;23.70;;;;;;;-2.38;80.96;97364.26;1780704;79;21265;-72
2021/03/13 03:22:23;;;;;;;52.50;25.80;;;;;;;-2.37;80.62;97364.55;1756645;80;21111;-71
2021/03/13 03:24:49;;;;;;;40.40;20.68;;;;;;;-2.35;80.92;97357.19;1762292;81;21044;-71
2021/03/13 03:27:15;;;;;;;47.08;22.73;;;;;;;-2.32;80.58;97352.77;1750125;81;21491;-71
2021/03/13 03:29:42;;;;;;;48.65;22.62;;;;;;;-2.38;82.07;97349.15;1780940;79;21539;-71
2021/03/13 03:32:08;;;;;;;57.65;30.10;;;;;;;-2.38;81.06;97350.98;1780875;80;21256;-71
2021/03/13 03:34:34;;;;;;;60.45;27.15;;;;;;;-2.33;80.93;97357.78;1780770;79;21087;-71
2021/03/13 03:37:00;;;;;;;47.48;24.80;;;;;;;-2.34;80.70;97360.14;1780962;80;21550;-71
2021/03/13 03:39:26;;;;;;;62.20;27.70;;;;;;;-2.38;80.56;97358.95;1762233;81;21053;-71
2021/03/13 03:41:53;;;;;;;51.13;26.70;;;;;;;-2.41;80.87;97355.38;1780968;80;21103;-71
2021/03/13 03:44:25;;;;;;;59.93;31.50;;;;;;;-2.45;80.93;97351.02;1762235;81;21427;-71
2021/03/13 03:46:51;;;;;;;68.40;31.05;;;;;;;-2.49;80.81;97342.36;1780839;80;21066;-71
2021/03/13 03:49:19;;;;;;;67.70;30.90;;;;;;;-2.51;80.67;97342.58;1736438;81;21060;-71
2021/03/13 03:51:46;;;;;;;57.10;29.82;;;;;;;-2.59;81.13;97337.52;1757077;80;21527;-71
2021/03/13 03:54:12;;;;;;;58.60;25.68;;;;;;;-2.60;80.51;97340.69;1762337;81;21123;-71
2021/03/13 03:56:40;;;;;;;54.73;27.65;;;;;;;-2.63;81.39;97341.13;1749930;82;21272;-71
2021/03/13 03:59:10;;;;;;;52.70;29.15;;;;;;;-2.58;80.66;97338.63;1749808;82;21061;-71
2021/03/13 04:01:36;;;;;;;65.20;33.15;;;;;;;-2.53;80.40;97338.52;1749912;82;21078;-72
2021/03/13 04:04:02;;;;;;;60.40;30.00;;;;;;;-2.50;81.53;97346.05;1780796;79;21571;-71
2021/03/13 04:06:28;;;;;;;65.70;31.25;;;;;;;-2.60;81.32;97334.57;1780834;80;21107;-71
2021/03/13 04:08:57;;;;;;;61.42;30.85;;;;;;;-2.69;80.93;97330.03;1780825;79;21417;-71
2021/03/13 04:11:24;;;;;;;65.65;29.18;;;;;;;-2.72;80.43;97324.34;1780992;80;21463;-71
2021/03/13 04:13:53;;;;;;;59.03;30.08;;;;;;;-2.81;80.12;97313.17;1780799;79;21031;-71
2021/03/13 04:16:20;;;;;;;61.25;32.73;;;;;;;-2.82;80.67;97311.52;1780834;80;21491;-72
2021/03/13 04:18:46;;;;;;;63.75;31.12;;;;;;;-2.75;80.68;97307.52;1780876;79;21098;-72
2021/03/13 04:21:13;;;;;;;68.37;31.52;;;;;;;-2.72;80.55;97301.80;1736582;81;21213;-72
2021/03/13 04:23:43;;;;;;;69.00;33.58;;;;;;;-2.77;80.70;97304.27;1683612;82;21166;-72
2021/03/13 04:26:09;;;;;;;93.95;43.55;;;;;;;-2.74;80.11;97288.73;1780903;80;21106;-71
2021/03/13 04:28:35;;;;;;;97.50;44.73;;;;;;;-2.72;80.39;97293.33;1780879;80;21146;-71
2021/03/13 04:31:02;;;;;;;132.80;55.08;;;;;;;-2.63;80.50;97293.89;1780825;79;21110;-71
2021/03/13 04:33:28;;;;;;;95.17;44.70;;;;;;;-2.56;80.53;97302.11;1780877;80;22049;-71
2021/03/13 04:35:55;;;;;;;75.65;35.63;;;;;;;-2.58;81.14;97292.20;1780735;79;21097;-71
2021/03/13 04:38:21;;;;;;;74.32;37.15;;;;;;;-2.59;81.77;97308.34;1780822;80;21147;-71
2021/03/13 04:40:49;;;;;;;75.67;36.15;;;;;;;-2.56;80.96;97307.42;1780765;79;21441;-71
2021/03/13 04:43:16;;;;;;;60.78;32.67;;;;;;;-2.49;80.62;97309.20;1756605;80;21083;-71
2021/03/13 04:45:42;;;;;;;52.05;26.97;;;;;;;-2.47;81.19;97298.69;1756632;80;21411;-71
2021/03/13 04:48:08;;;;;;;58.95;32.65;;;;;;;-2.38;80.58;97303.22;1780843;80;21123;-71
2021/03/13 04:50:34;;;;;;;52.20;28.05;;;;;;;-2.37;81.04;97301.67;1780848;79;21488;-71
2021/03/13 04:53:01;;;;;;;49.73;25.70;;;;;;;-2.40;81.15;97289.34;1780785;80;21178;-71
2021/03/13 04:55:27;;;;;;;48.35;27.75;;;;;;;-2.45;80.82;97280.70;1780843;79;21011;-71
2021/03/13 04:57:55;;;;;;;55.17;26.77;;;;;;;-2.49;80.96;97276.84;1780917;80;21138;-71
2021/03/13 05:00:22;;;;;;;55.60;27.33;;;;;;;-2.43;80.54;97274.66;1781063;79;21634;-71
2021/03/13 05:02:48;;;;;;;46.10;21.40;;;;;;;-2.42;80.91;97279.45;1780804;80;21122;-71
2021/03/13 05:05:14;;;;;;;69.45;34.10;;;;;;;-2.35;80.23;97274.92;1735112;82;21123;-71
2021/03/13 05:07:41;;;;;;;133.32;54.50;;;;;;;-2.37;80.48;97277.80;1788843;80;21109;-71
2021/03/13 05:10:08;;;;;;;145.32;60.83;;;;;;;-2.28;81.62;97275.69;1788745;78;21236;-71
2021/03/13 05:12:35;;;;;;;106.37;48.20;;;;;;;-2.22;81.33;97290.76;1788755;80;21083;-71
2021/03/13 05:15:03;;;;;;;89.28;40.70;;;;;;;-2.13;81.01;97287.32;1788754;78;21125;-71
2021/03/13 05:17:29;;;;;;;95.57;43.30;;;;;;;-2.13;81.54;97271.39;1789055;80;21471;-71
2021/03/13 05:19:55;;;;;;;96.92;47.80;;;;;;;-2.07;80.71;97266.52;1788784;78;21459;-71
2021/03/13 05:22:21;;;;;;;85.60;40.60;;;;;;;-2.02;80.78;97274.66;1788815;80;22057;-71
2021/03/13 05:24:48;;;;;;;85.72;37.55;;;;;;;-1.93;80.72;97264.58;1788693;78;21046;-71
2021/03/13 05:27:14;;;;;;;72.30;35.08;;;;;;;-1.85;80.44;97277.05;1788912;80;21150;-71
2021/03/13 05:29:40;;;;;;;80.85;36.30;;;;;;;-1.77;80.24;97274.64;1788745;78;21015;-71
2021/03/13 05:32:07;;;;;;;64.92;29.80;;;;;;;-1.65;80.09;97274.72;1788829;80;21483;-71
2021/03/13 05:34:34;;;;;;;70.72;28.20;;;;;;;-1.63;80.70;97273.45;1788851;78;21200;-71
2021/03/13 05:37:00;;;;;;;79.62;34.00;;;;;;;-1.59;80.45;97261.38;1788749;80;21094;-71
2021/03/13 05:39:27;;;;;;;165.07;68.80;;;;;;;-1.57;79.73;97251.84;1788829;78;21447;-71
2021/03/13 05:41:53;;;;;;;195.77;87.57;;;;;;;-1.52;79.62;97267.95;1788813;80;21142;-71
2021/03/13 05:44:19;;;;;;;159.05;68.30;;;;;;;-1.45;79.43;97264.19;1788707;78;21158;-71
2021/03/13 05:46:45;;;;;;;137.65;63.92;;;;;;;-1.49;79.36;97261.66;1788865;80;21198;-71
2021/03/13 05:49:12;;;;;;;129.32;65.95;;;;;;;-1.45;79.31;97270.84;1788707;78;21042;-71
2021/03/13 05:51:46;;;;;;;95.45;49.85;;;;;;;-1.45;80.38;97255.41;1788847;80;21459;-72
2021/03/13 05:54:16;;;;;;;94.17;49.38;;;;;;;-1.39;79.76;97256.34;1788825;78;21039;-71
2021/03/13 05:56:42;;;;;;;63.98;28.77;;;;;;;-1.32;79.92;97253.91;1788788;80;21126;-71
2021/03/13 05:59:10;;;;;;;69.50;36.95;;;;;;;-1.18;79.66;97245.27;1788839;78;22235;-71
2021/03/13 06:01:37;;;;;;;70.30;34.88;;;;;;;-1.20;79.71;97245.50;1788831;80;21070;-72
2021/03/13 06:04:03;;;;;;;66.85;37.05;;;;;;;-1.12;80.11;97234.23;1788585;78;21621;-72
2021/03/13 06:06:29;;;;;;;61.95;35.52;;;;;;;-1.02;80.33;97237.20;1785161;80;21082;-72
2021/03/13 06:08:55;;;;;;;62.13;31.12;;;;;;;-0.96;80.07;97238.42;1785209;79;21109;-72
2021/03/13 06:11:22;;;;;;;65.83;38.20;;;;;;;-0.80;79.84;97237.50;1785162;80;21195;-72
2021/03/13 06:13:49;;;;;;;62.20;31.87;;;;;;;-0.71;80.00;97237.47;1785060;79;21070;-72
2021/03/13 06:16:15;;;;;;;69.27;35.48;;;;;;;-0.56;79.81;97243.19;1785131;80;21083;-72
2021/03/13 06:18:53;;;;;;;76.75;32.60;;;;;;;-0.45;79.58;97245.06;1785147;79;21491;-72
2021/03/13 06:21:37;;;;;;;84.60;46.63;;;;;;;-0.28;79.68;97261.19;1785142;80;21027;-72
2021/03/13 06:24:18;;;;;;;182.75;105.45;;;;;;;-0.16;79.77;97251.38;1785211;79;21251;-71
2021/03/13 06:27:00;;;;;;;150.68;93.10;;;;;;;0.01;79.89;97254.18;1785097;80;21099;-72
2021/03/13 06:29:27;;;;;;;172.30;92.50;;;;;;;0.14;79.43;97255.27;1785112;79;21035;-71
2021/03/13 06:32:11;;;;;;;98.62;60.43;;;;;;;0.30;79.32;97255.09;1785218;80;21506;-71
2021/03/13 06:34:38;;;;;;;139.10;57.60;;;;;;;0.46;78.77;97254.39;1784534;79;21015;-71
2021/03/13 06:37:27;;;;;;;218.50;52.65;;;;;;;0.70;79.07;97258.36;1785268;80;22039;-71
2021/03/13 06:39:54;;;;;;;;;;;;;;;1.29;78.66;97257.14;1787774;79;21102;-71
2021/03/13 06:42:26;;;;;;;39.75;20.52;;;;;;;1.85;77.62;97258.63;1785108;80;20226;-71
2021/03/13 06:45:01;;;;;;;31.85;12.47;;;;;;;2.18;76.11;97245.27;1785167;79;21094;-72
2021/03/13 06:47:36;;;;;;;39.70;13.15;;;;;;;2.73;75.49;97248.42;1785038;80;21082;-71
2021/03/13 06:50:16;;;;;;;26.70;8.55;;;;;;;3.36;73.96;97264.45;1785125;79;22078;-71
2021/03/13 06:52:50;;;;;;;11.68;3.83;;;;;;;3.96;72.90;97267.43;1755085;80;21318;-71
2021/03/13 06:55:20;;;;;;;27.15;8.10;;;;;;;4.70;68.49;97257.23;1785226;79;21047;-72
2021/03/13 06:57:48;;;;;;;15.10;5.10;;;;;;;5.35;66.32;97258.55;1785208;80;21090;-72
2021/03/13 07:00:34;;;;;;;27.02;5.25;;;;;;;5.80;64.21;97263.75;1785219;79;21506;-72
2021/03/13 07:03:07;;;;;;;25.27;5.00;;;;;;;6.08;62.63;97260.33;1785233;80;21507;-71
2021/03/13 07:05:33;;;;;;;8.20;3.00;;;;;;;6.34;61.66;97268.66;1782715;79;21475;-71
2021/03/13 07:07:59;;;;;;;23.32;5.80;;;;;;;6.44;60.75;97256.53;1780713;80;21535;-72
2021/03/13 07:10:27;;;;;;;7.33;1.85;;;;;;;6.56;60.09;97268.34;1780681;79;21520;-71
2021/03/13 07:12:53;;;;;;;11.45;4.55;;;;;;;6.58;61.12;97270.76;1780738;80;21099;-71
2021/03/13 07:15:25;;;;;;;10.65;3.65;;;;;;;6.61;60.15;97273.73;1780697;79;21908;-71
2021/03/13 07:17:56;;;;;;;8.23;2.65;;;;;;;6.66;59.09;97280.97;1780642;80;21103;-71
2021/03/13 07:20:28;;;;;;;9.25;2.92;;;;;;;6.72;58.59;97282.05;1780755;79;21146;-71
2021/03/13 07:22:56;;;;;;;8.43;2.77;;;;;;;6.67;58.69;97278.58;1780687;80;21070;-72
2021/03/13 07:25:24;;;;;;;12.13;4.47;;;;;;;6.66;59.05;97290.39;1781013;79;21464;-72
2021/03/13 07:27:59;;;;;;;10.72;4.42;;;;;;;6.66;59.20;97285.81;1780790;80;21095;-72
2021/03/13 07:30:27;;;;;;;19.25;5.15;;;;;;;6.61;59.10;97297.95;1780637;79;21476;-71
2021/03/13 07:33:06;;;;;;;9.13;3.62;;;;;;;6.57;59.16;97293.38;1780737;80;21094;-71
2021/03/13 07:35:37;;;;;;;4.92;2.55;;;;;;;6.59;60.23;97308.73;1780753;79;21142;-70
2021/03/13 07:38:05;;;;;;;9.83;4.30;;;;;;;6.62;59.29;97284.76;1780733;80;21091;-72
2021/03/13 07:40:33;;;;;;;13.22;3.83;;;;;;;6.65;58.97;97300.36;1762128;81;22155;-72
2021/03/13 07:42:59;;;;;;;6.35;2.85;;;;;;;6.79;58.59;97297.38;1780575;80;21099;-72
2021/03/13 07:45:25;;;;;;;11.85;5.17;;;;;;;6.77;58.78;97304.13;1731820;81;21111;-72
2021/03/13 07:47:51;;;;;;;6.83;2.98;;;;;;;6.75;58.69;97307.61;1780778;80;21570;-72
2021/03/13 07:50:17;;;;;;;7.50;3.47;;;;;;;6.70;59.81;97321.09;1731811;81;21056;-72
2021/03/13 07:52:44;;;;;;;5.97;3.47;;;;;;;6.70;59.41;97307.64;1780653;80;21201;-72
2021/03/13 07:55:12;;;;;;;6.97;3.12;;;;;;;6.76;59.84;97319.48;1735859;81;21044;-72
2021/03/13 07:57:41;;;;;;;6.92;3.00;;;;;;;6.85;59.50;97318.39;1780892;80;21484;-72
2021/03/13 08:00:10;;;;;;;10.23;2.80;;;;;;;6.91;59.21;97311.89;1762322;81;21037;-72
2021/03/13 08:02:39;;;;;;;6.17;2.50;;;;;;;6.96;59.85;97317.27;1730405;83;21104;-72
2021/03/13 08:05:17;;;;;;;17.00;10.40;;;;;;;7.01;59.15;97309.73;1780312;79;21186;-72
2021/03/13 08:07:58;;;;;;;12.65;7.22;;;;;;;7.02;58.69;97305.95;1769713;80;21495;-71
2021/03/13 08:10:52;;;;;;;7.05;3.00;;;;;;;7.13;59.24;97315.61;1778028;79;21139;-71
2021/03/13 08:13:35;;;;;;;17.70;3.55;;;;;;;7.22;59.22;97318.01;1778210;80;21466;-71
2021/03/13 08:16:19;;;;;;;15.13;5.35;;;;;;;7.33;59.71;97320.12;1778166;79;21135;-71
2021/03/13 08:18:48;;;;;;;5.37;2.77;;;;;;;7.48;59.13;97328.69;1778080;79;21252;-71
2021/03/13 08:21:29;;;;;;;7.07;2.17;;;;;;;7.78;59.44;97323.70;1778332;80;21094;-71
2021/03/13 08:23:59;;;;;;;4.50;2.30;;;;;;;8.25;57.81;97319.62;1778152;79;21498;-71
2021/03/13 08:26:40;;;;;;;5.33;2.42;;;;;;;8.42;57.82;97316.81;1778037;80;21524;-71
2021/03/13 08:29:08;;;;;;;6.87;2.72;;;;;;;8.75;57.53;97311.66;1778135;79;21531;-72
2021/03/13 08:31:41;;;;;;;4.33;2.53;;;;;;;9.08;56.07;97305.93;1777810;80;21352;-72
2021/03/13 08:34:19;;;;;;;7.08;3.75;;;;;;;9.08;55.86;97308.63;1753836;80;21055;-71
2021/03/13 08:36:50;;;;;;;5.55;2.67;;;;;;;9.02;54.81;97298.95;1778056;80;21099;-71
2021/03/13 08:39:23;;;;;;;8.53;3.70;;;;;;;9.05;54.47;97297.02;1778072;79;21039;-71
2021/03/13 08:41:54;;;;;;;12.13;2.85;;;;;;;8.81;55.54;97298.92;1777200;80;21050;-70
2021/03/13 08:44:33;;;;;;;5.90;2.20;;;;;;;8.68;56.36;97303.08;1778028;79;22097;-70
2021/03/13 08:47:08;;;;;;;7.42;2.50;;;;;;;8.46;55.39;97302.22;1753795;80;21111;-72
2021/03/13 08:49:45;;;;;;;6.83;3.42;;;;;;;8.27;55.77;97306.09;1778049;79;21101;-71
2021/03/13 08:52:21;;;;;;;8.08;3.47;;;;;;;8.19;56.58;97311.55;1778045;80;21135;-70
2021/03/13 08:54:50;;;;;;;9.35;3.62;;;;;;;8.07;56.61;97316.50;1778132;79;21044;-71
2021/03/13 08:57:28;;;;;;;5.17;2.20;;;;;;;8.01;56.78;97327.59;1777966;80;21247;-71
2021/03/13 08:59:59;;;;;;;6.53;3.13;;;;;;;7.89;55.22;97316.62;1778342;79;21079;-72
2021/03/13 09:02:32;;;;;;;5.12;2.08;;;;;;;7.93;56.57;97323.59;1778122;80;21102;-70
2021/03/13 09:05:11;;;;;;;2.77;1.40;;;;;;;7.98;55.87;97328.97;1778054;79;21404;-71
2021/03/13 09:07:37;;;;;;;4.85;3.15;;;;;;;8.18;55.13;97321.27;1785378;80;21444;-71
2021/03/13 09:10:05;;;;;;;7.00;2.92;;;;;;;8.18;55.71;97330.17;1756723;80;21266;-72
2021/03/13 09:12:33;;;;;;;6.65;3.25;;;;;;;8.32;55.90;97319.56;1785402;80;21126;-71
2021/03/13 09:15:01;;;;;;;6.30;2.62;;;;;;;8.59;55.56;97323.69;1785290;79;21448;-71
2021/03/13 09:17:30;;;;;;;5.15;2.35;;;;;;;8.74;54.94;97318.97;1756874;80;21055;-71
2021/03/13 09:20:02;;;;;;;6.80;3.73;;;;;;;8.85;53.62;97321.56;1785449;79;21023;-71
2021/03/13 09:22:29;;;;;;;7.08;4.40;;;;;;;8.91;54.12;97321.78;1758205;80;21195;-71
2021/03/13 09:25:03;;;;;;;56.75;39.03;;;;;;;8.96;54.51;97318.47;1785104;79;21067;-71
2021/03/13 09:27:31;;;;;;;9.20;4.08;;;;;;;8.94;54.08;97314.45;1785189;80;21094;-71
2021/03/13 09:29:59;;;;;;;9.43;3.50;;;;;;;8.88;54.27;97325.03;1785439;79;21051;-70
2021/03/13 09:32:26;;;;;;;11.10;4.40;;;;;;;8.90;54.64;97318.27;1785268;80;21074;-70
2021/03/13 09:34:54;;;;;;;3.00;1.57;;;;;;;8.81;53.36;97310.53;1785215;79;21265;-70
2021/03/13 09:37:29;;;;;;;5.17;1.98;;;;;;;8.82;54.10;97324.84;1785144;80;21038;-70
2021/03/13 09:40:06;;;;;;;11.48;2.70;;;;;;;8.74;53.84;97310.86;1785225;79;21531;-71
2021/03/13 09:42:32;;;;;;;9.05;2.40;;;;;;;8.78;53.83;97311.08;1785252;80;21532;-70
2021/03/13 09:45:05;;;;;;;8.00;4.12;;;;;;;8.81;54.53;97311.08;1785256;79;21392;-70
2021/03/13 09:47:45;;;;;;;7.03;3.02;;;;;;;8.85;54.41;97304.80;1785165;80;21181;-71
2021/03/13 09:50:16;;;;;;;6.53;2.22;;;;;;;8.90;54.81;97300.71;1784846;79;21126;-71
2021/03/13 09:52:47;;;;;;;5.15;2.45;;;;;;;9.09;53.64;97302.13;1785220;80;21472;-70
2021/03/13 09:55:27;;;;;;;7.05;2.33;;;;;;;9.06;53.98;97295.96;1785194;79;21465;-70
2021/03/13 09:57:55;;;;;;;6.40;2.37;;;;;;;9.03;53.75;97290.56;1785306;80;21519;-72
2021/03/13 10:00:25;;;;;;;11.30;3.92;;;;;;;9.09;53.69;97288.62;1785224;79;21199;-72
2021/03/13 10:02:52;;;;;;;5.62;3.35;;;;;;;9.10;53.78;97296.17;1785118;80;21133;-72
2021/03/13 10:05:22;;;;;;;14.78;2.27;;;;;;;9.22;54.21;97290.61;1785005;79;21027;-72
2021/03/13 10:07:50;;;;;;;6.35;2.45;;;;;;;9.38;52.38;97279.07;1780624;80;21110;-72
2021/03/13 10:10:21;;;;;;;27.10;19.30;;;;;;;9.34;52.47;97284.81;1781066;79;21027;-72
2021/03/13 10:12:51;;;;;;;5.75;2.90;;;;;;;9.30;52.64;97288.63;1780717;80;21504;-72
2021/03/13 10:15:21;;;;;;;4.42;2.20;;;;;;;9.36;52.39;97289.38;1779695;79;21404;-72
2021/03/13 10:17:58;;;;;;;6.87;2.27;;;;;;;9.40;52.24;97274.20;1780701;80;21090;-72
2021/03/13 10:20:35;;;;;;;17.12;2.98;;;;;;;9.48;52.29;97280.29;1780710;79;21099;-70
2021/03/13 10:23:13;;;;;;;12.18;5.08;;;;;;;9.53;52.66;97273.47;1780766;80;21087;-71
2021/03/13 10:25:42;;;;;;;4.78;2.90;;;;;;;9.78;52.91;97271.52;1780695;79;21194;-70
2021/03/13 10:28:14;;;;;;;8.23;2.50;;;;;;;10.09;51.91;97275.95;1780895;80;21094;-70
2021/03/13 10:30:43;;;;;;;10.55;6.78;;;;;;;10.37;50.03;97262.78;1780520;79;21031;-70
2021/03/13 10:33:10;;;;;;;5.33;3.55;;;;;;;10.34;49.77;97256.62;1761835;81;21112;-71
2021/03/13 10:35:36;;;;;;;7.67;2.90;;;;;;;10.32;49.75;97260.14;1780646;79;21015;-72
2021/03/13 10:38:13;;;;;;;5.12;1.80;;;;;;;10.34;49.72;97264.74;1762265;81;21520;-71
2021/03/13 10:40:43;;;;;;;8.40;6.90;;;;;;;10.52;48.33;97255.51;1776678;79;21046;-70
2021/03/13 10:43:19;;;;;;;12.82;9.03;;;;;;;10.28;49.21;97249.67;1762210;81;21124;-71
2021/03/13 10:46:02;;;;;;;24.00;12.40;;;;;;;10.28;49.21;97249.67;1780655;79;21483;-70
2021/03/13 10:48:35;;;;;;;26.85;12.53;;;;;;;10.37;48.62;97245.73;1762199;81;21112;-71
2021/03/13 10:51:03;;;;;;;35.95;19.07;;;;;;;10.38;48.48;97249.50;1776886;80;22176;-70
2021/03/13 10:53:35;;;;;;;7.35;3.98;;;;;;;10.34;47.56;97240.89;1762098;81;21124;-71
2021/03/13 10:56:12;;;;;;;5.03;2.55;;;;;;;10.40;46.79;97244.58;1779884;79;21328;-71
2021/03/13 10:59:00;;;;;;;12.98;5.53;;;;;;;10.38;47.85;97232.44;1762270;81;21477;-71
2021/03/13 11:01:23;;;;;;;15.13;8.83;;;;;;;10.57;46.91;97238.59;1779377;80;21142;-71
2021/03/13 11:03:50;;;;;;;12.60;3.72;;;;;;;10.46;47.36;97245.30;1762142;81;21197;-71
2021/03/13 11:06:32;;;;;;;12.63;6.20;;;;;;;10.36;47.34;97225.17;1779814;78;21040;-71
2021/03/13 11:09:04;;;;;;;5.58;3.80;;;;;;;10.36;47.34;97225.17;1777178;79;21091;-71
2021/03/13 11:11:30;;;;;;;10.20;6.28;;;;;;;10.36;47.26;97221.11;1777980;80;21470;-70
2021/03/13 11:13:57;;;;;;;5.00;3.35;;;;;;;10.36;47.14;97214.34;1777934;79;21559;-70
2021/03/13 11:16:23;;;;;;;14.83;3.62;;;;;;;10.29;46.73;97206.59;1777938;80;21179;-71
2021/03/13 11:18:52;;;;;;;6.92;3.72;;;;;;;10.55;45.56;97204.23;1777861;79;21079;-70
2021/03/13 11:21:18;;;;;;;4.28;2.40;;;;;;;10.34;46.14;97204.33;1754240;80;21050;-70
2021/03/13 11:23:44;;;;;;;12.18;3.17;;;;;;;10.34;46.44;97204.33;1777985;79;21166;-70
2021/03/13 11:26:11;;;;;;;4.10;2.35;;;;;;;10.34;46.44;97204.33;1777954;80;21396;-70
2021/03/13 11:28:39;;;;;;;6.33;2.90;;;;;;;10.38;46.52;97195.33;1778000;80;21177;-71
2021/03/13 11:31:06;;;;;;;6.70;2.37;;;;;;;10.51;46.28;97201.89;1777843;79;21496;-70
2021/03/13 11:33:32;;;;;;;3.33;1.65;;;;;;;10.51;46.28;97201.89;1753890;80;21102;-70
2021/03/13 11:35:58;;;;;;;5.75;2.72;;;;;;;10.60;46.21;97189.81;1777883;79;21011;-70